Current | Forecast
Updated: 3:30 PM JST on April 27, 2018
Observed at Naha City, Japan
Temperature 75°F
Humidity 57%
Dew Point 59°F
Wind North at 15 mph
Pressure 29.98 in (Steady)
Conditions Partly Cloudy
Visibility 6.2 miles
UV 8 out of 16
Clouds (FEW) : 3000 ft
Yesterday's Maximum 75°F
Yesterday's Minimum 68°F approx.
Yesterday's Cooling Degree Days 7 approx.
Sunrise5:55 AM JST
Sunset6:58 PM JST
Moon Rise4:23 PM JST
Moon Set4:11 AM JST
Moon PhaseMoon Phase
Waxing Gibbous
Raw METARMETAR ROAH 270630Z 35013KT 9999 FEW030 24/15 Q1015 RMK 1CU030 A2997


Monday
. High: 78° F.
Tuesday
. High: 78° F.
Wednesday
. High: 77° F.
Thursday
. High: 77° F.
Friday
. High: 78° F.
Saturday
. High: 77° F.
Sunday
. High: 78° F.
Monday
. High: 78° F.

Units: English | Metric

Find the Weather for any City, State or Zipcode, or Country:

U.S. State List | Severe Weather | Tropical Storms | Ski Conditions
United States | Canada | Central America | South America | Asia | Europe | Australia | Africa | Islands

Weather Underground

© Copyright 2018
The Weather Company, LLC